createdAt,value
2022-09-03T00:00:02.869Z,1.73
2022-09-03T00:05:23.324Z,1.50
2022-09-03T00:10:29.831Z,1.90
2022-09-03T00:15:33.126Z,1.70
2022-09-03T00:20:39.170Z,1.95
2022-09-03T00:25:45.047Z,1.90
2022-09-03T00:30:53.966Z,1.98
2022-09-03T00:36:01.840Z,1.63
2022-09-03T00:41:06.059Z,1.65
2022-09-03T00:46:07.630Z,1.70
2022-09-03T00:51:18.892Z,1.95
2022-09-03T00:56:23.297Z,1.75
2022-09-03T01:01:43.900Z,1.58
2022-09-03T01:06:45.395Z,1.50
2022-09-03T01:11:47.218Z,1.90
2022-09-03T01:16:48.605Z,1.50
2022-09-03T01:21:59.303Z,1.60
2022-09-03T01:27:15.222Z,1.40
2022-09-03T01:32:27.944Z,1.83
2022-09-03T01:37:35.587Z,1.80
2022-09-03T01:42:46.131Z,1.48
2022-09-03T01:47:57.038Z,1.70
2022-09-03T01:52:58.430Z,1.50
2022-09-03T01:58:07.871Z,1.40
2022-09-03T02:08:21.957Z,1.70
2022-09-03T02:13:28.657Z,1.83
2022-09-03T02:18:33.543Z,1.80
2022-09-03T02:23:34.948Z,1.80
2022-09-03T02:28:36.499Z,1.80
2022-09-03T02:33:39.600Z,1.60
2022-09-03T02:38:42.517Z,1.60
2022-09-03T02:43:47.079Z,1.50
2022-09-03T02:48:48.576Z,1.80
2022-09-03T02:53:50.913Z,1.48
2022-09-03T02:58:52.392Z,1.52
2022-09-03T03:03:53.825Z,1.60
2022-09-03T03:08:56.199Z,1.73
2022-09-03T03:13:57.751Z,1.70
2022-09-03T03:19:00.179Z,1.50
2022-09-03T03:24:02.025Z,1.60
2022-09-03T03:29:06.651Z,1.55
2022-09-03T03:34:08.070Z,1.48
2022-09-03T03:39:11.395Z,1.60
2022-09-03T03:44:12.961Z,1.50
2022-09-03T03:49:14.410Z,1.60
2022-09-03T03:54:17.615Z,1.40
2022-09-03T03:59:19.760Z,1.45
2022-09-03T04:04:21.174Z,1.33
2022-09-03T04:09:22.613Z,1.42
2022-09-03T04:14:24.555Z,1.50
2022-09-03T04:19:25.996Z,1.67
2022-09-03T04:24:27.562Z,1.80
2022-09-03T04:29:30.804Z,1.67
2022-09-03T04:34:32.476Z,1.60
2022-09-03T04:39:34.000Z,1.40
2022-09-03T04:44:38.389Z,1.58
2022-09-03T04:49:40.216Z,1.50
2022-09-03T04:54:41.648Z,1.50
2022-09-03T04:59:43.073Z,1.83
2022-09-03T05:04:44.485Z,1.50
2022-09-03T05:09:45.923Z,1.30
2022-09-03T05:14:47.357Z,1.65
2022-09-03T05:19:49.011Z,1.40
2022-09-03T05:24:50.449Z,1.58
2022-09-03T05:29:51.864Z,1.40
2022-09-03T05:34:53.524Z,1.23
2022-09-03T05:39:55.054Z,1.40
2022-09-03T05:44:57.279Z,1.30
2022-09-03T05:49:58.753Z,1.70
2022-09-03T05:55:00.164Z,1.40
2022-09-03T06:00:01.680Z,1.55
2022-09-03T06:05:03.315Z,1.27
2022-09-03T06:10:04.922Z,1.60
2022-09-03T06:15:06.969Z,1.40
2022-09-03T06:20:08.743Z,1.40
2022-09-03T06:25:11.142Z,1.60
2022-09-03T06:30:13.505Z,1.52
2022-09-03T06:35:15.926Z,1.58
2022-09-03T06:40:22.559Z,1.52
2022-09-03T06:45:24.076Z,1.40
2022-09-03T06:50:25.500Z,1.52
2022-09-03T06:55:26.941Z,1.50
2022-09-03T07:00:28.442Z,1.40
2022-09-03T07:05:33.533Z,1.27
2022-09-03T07:10:37.455Z,1.38
2022-09-03T07:15:40.262Z,1.50
2022-09-03T07:20:41.871Z,1.35
2022-09-03T07:25:43.669Z,1.42
2022-09-03T07:30:45.131Z,1.20
2022-09-03T07:35:47.188Z,1.50
2022-09-03T07:40:48.700Z,1.27
2022-09-03T07:45:50.579Z,1.50
2022-09-03T07:50:52.489Z,1.40
2022-09-03T07:55:54.494Z,1.40
2022-09-03T08:00:57.221Z,1.52
2022-09-03T08:06:03.760Z,1.70
2022-09-03T08:11:11.129Z,1.42
2022-09-03T08:16:13.383Z,1.48
2022-09-03T08:21:16.189Z,1.70
2022-09-03T08:26:18.409Z,1.50
2022-09-03T08:31:21.440Z,1.50
2022-09-03T08:36:25.380Z,1.50
2022-09-03T08:41:40.015Z,1.40
2022-09-03T08:46:51.269Z,1.40
2022-09-03T08:51:54.148Z,1.60
2022-09-03T08:56:56.742Z,1.60
2022-09-03T09:02:04.605Z,1.60
2022-09-03T09:07:06.117Z,1.60
2022-09-03T09:12:14.284Z,1.70
2022-09-03T09:17:36.156Z,2.13
2022-09-03T09:22:49.908Z,1.63
2022-09-03T09:27:55.071Z,1.50
2022-09-03T09:32:56.598Z,1.67
2022-09-03T09:38:00.325Z,1.50
2022-09-03T09:43:16.047Z,1.60
2022-09-03T09:48:34.563Z,1.40
2022-09-03T09:53:36.332Z,1.48
2022-09-03T09:58:37.813Z,1.63
2022-09-03T10:03:41.741Z,1.67
2022-09-03T10:08:43.144Z,1.50
2022-09-03T10:13:46.685Z,1.30
2022-09-03T10:19:00.181Z,1.33
2022-09-03T10:24:20.947Z,1.60
2022-09-03T10:29:23.936Z,1.30
2022-09-03T10:34:35.136Z,1.42
2022-09-03T10:39:43.565Z,1.50
2022-09-03T10:44:58.310Z,1.40
2022-09-03T10:50:16.265Z,1.50
2022-09-03T10:55:25.144Z,1.95
2022-09-03T11:05:29.856Z,1.40
2022-09-03T11:10:32.902Z,1.27
2022-09-03T11:15:43.224Z,1.25
2022-09-03T11:20:45.112Z,1.50
2022-09-03T11:25:51.988Z,1.48
2022-09-03T11:31:07.168Z,1.40
2022-09-03T11:36:08.665Z,1.30
2022-09-03T11:41:14.448Z,1.33
2022-09-03T11:46:22.124Z,1.27
2022-09-03T11:51:35.786Z,1.50
2022-09-03T11:56:37.377Z,1.30
2022-09-03T12:01:39.862Z,1.63
2022-09-03T12:07:00.176Z,1.50
2022-09-03T12:12:23.914Z,1.75
2022-09-03T12:17:33.267Z,1.42
2022-09-03T12:22:39.131Z,1.30
2022-09-03T12:27:43.304Z,1.60
2022-09-03T12:32:45.536Z,1.30
2022-09-03T12:48:39.728Z,1.38
2022-09-03T12:53:44.983Z,1.45
2022-09-03T12:58:53.431Z,1.50
2022-09-03T13:09:00.862Z,1.33
2022-09-03T13:14:07.224Z,1.60
2022-09-03T13:19:27.670Z,1.50
2022-09-03T13:24:55.476Z,1.77
2022-09-03T13:30:13.336Z,1.60
2022-09-03T13:35:37.236Z,1.55
2022-09-03T13:40:44.633Z,1.35
2022-09-03T13:45:52.054Z,1.55
2022-09-03T13:51:00.110Z,1.60
2022-09-03T13:56:06.606Z,1.35
2022-09-03T14:01:13.474Z,1.42
2022-09-03T14:06:38.083Z,1.50
2022-09-03T14:11:58.043Z,1.40
2022-09-03T14:17:05.548Z,1.30
2022-09-03T14:22:10.588Z,1.45
2022-09-03T14:27:12.113Z,1.30
2022-09-03T14:32:13.583Z,1.40
2022-09-03T14:37:34.196Z,1.63
2022-09-03T14:42:41.884Z,1.40
2022-09-03T14:47:58.334Z,1.43
2022-09-03T14:53:07.113Z,1.40
2022-09-03T14:58:14.410Z,1.45
2022-09-03T15:03:41.809Z,1.30
2022-09-03T15:09:01.594Z,1.52
2022-09-03T15:14:03.006Z,1.63
2022-09-03T15:19:12.486Z,1.20
2022-09-03T15:24:16.705Z,1.40
2022-09-03T15:29:18.126Z,1.40
2022-09-03T15:34:19.824Z,1.50
2022-09-03T15:39:47.410Z,1.35
2022-09-03T15:44:51.283Z,1.30
2022-09-03T15:50:01.931Z,1.45
2022-09-03T15:55:06.440Z,1.45
2022-09-03T16:00:21.292Z,1.42
2022-09-03T16:05:35.310Z,1.73
2022-09-03T16:10:41.428Z,1.40
2022-09-03T16:15:52.926Z,1.50
2022-09-03T16:20:57.693Z,1.60
2022-09-03T16:26:11.282Z,1.40
2022-09-03T16:31:13.062Z,1.30
2022-09-03T16:36:23.868Z,1.50
2022-09-03T16:41:34.169Z,1.40
2022-09-03T16:46:35.701Z,1.80
2022-09-03T16:51:40.503Z,1.40
2022-09-03T16:56:51.136Z,1.60
2022-09-03T17:02:36.951Z,1.85
2022-09-03T17:07:53.199Z,1.83
2022-09-03T17:13:14.854Z,1.70
2022-09-03T17:18:31.682Z,1.60
2022-09-03T17:23:38.103Z,1.60
2022-09-03T17:28:58.807Z,1.70
2022-09-03T17:34:33.234Z,1.70
2022-09-03T17:39:54.972Z,1.70
2022-09-03T17:45:07.042Z,1.52
2022-09-03T17:50:08.528Z,1.90
2022-09-03T17:55:28.347Z,1.52
2022-09-03T18:00:50.658Z,1.52
2022-09-03T18:06:01.277Z,1.58
2022-09-03T18:11:05.969Z,1.50
2022-09-03T18:16:11.438Z,1.50
2022-09-03T18:21:33.165Z,1.55
2022-09-03T18:26:57.434Z,1.88
2022-09-03T18:32:18.734Z,1.77
2022-09-03T18:37:45.271Z,1.75
2022-09-03T18:43:28.474Z,1.60
2022-09-03T18:48:57.964Z,1.63
2022-09-03T18:59:50.308Z,1.80
2022-09-03T19:05:25.291Z,1.67
2022-09-03T19:10:52.605Z,1.48
2022-09-03T19:16:18.751Z,1.60
2022-09-03T19:21:47.741Z,1.63
2022-09-03T19:27:46.095Z,1.80
2022-09-03T19:33:09.531Z,2.00
2022-09-03T19:38:56.998Z,2.00
2022-09-03T19:44:23.352Z,1.88
2022-09-03T19:50:02.318Z,1.65
2022-09-03T19:55:22.323Z,1.60
2022-09-03T20:00:42.547Z,1.88
2022-09-03T20:06:06.536Z,1.70
2022-09-03T20:11:17.060Z,1.60
2022-09-03T20:16:29.366Z,1.58
2022-09-03T20:21:43.453Z,1.60
2022-09-03T20:26:44.850Z,1.60
2022-09-03T20:31:49.345Z,1.77
2022-09-03T20:37:04.602Z,2.05
2022-09-03T20:42:11.958Z,1.70
2022-09-03T20:47:13.428Z,1.80
2022-09-03T20:52:15.590Z,1.85
2022-09-03T20:57:29.816Z,1.98
2022-09-03T21:02:54.166Z,2.00
2022-09-03T21:08:07.861Z,1.95
2022-09-03T21:13:38.672Z,1.70
2022-09-03T21:18:42.877Z,1.75
2022-09-03T21:23:46.327Z,2.20
2022-09-03T21:28:53.519Z,2.75
2022-09-03T21:34:01.611Z,1.73
2022-09-03T21:39:09.095Z,1.75
2022-09-03T21:44:10.632Z,2.05
2022-09-03T21:49:15.298Z,1.70
2022-09-03T21:54:30.853Z,1.90
2022-09-03T21:59:44.435Z,1.90
2022-09-03T22:04:46.073Z,1.98
2022-09-03T22:09:54.778Z,1.83
2022-09-03T22:14:56.389Z,1.88
2022-09-03T22:19:57.797Z,1.92
2022-09-03T22:25:09.062Z,2.05
2022-09-03T22:30:15.235Z,1.88
2022-09-03T22:35:24.923Z,2.20
2022-09-03T22:40:26.365Z,1.92
2022-09-03T22:45:27.802Z,2.03
2022-09-03T22:50:35.348Z,2.33
2022-09-03T22:55:39.721Z,2.10
2022-09-03T23:00:45.903Z,2.20
2022-09-03T23:05:59.279Z,2.08
2022-09-03T23:11:23.227Z,2.58
2022-09-03T23:16:30.613Z,1.90
2022-09-03T23:21:46.205Z,1.95
2022-09-03T23:26:49.506Z,2.45
2022-09-03T23:31:52.861Z,2.10
2022-09-03T23:37:16.170Z,2.03
2022-09-03T23:42:25.775Z,2.15
2022-09-03T23:47:47.623Z,1.95
2022-09-03T23:52:56.305Z,2.15
2022-09-03T23:58:18.016Z,2.20
